createdAt,value
2022-09-22T00:01:31.437Z,99.90
2022-09-22T00:04:01.615Z,99.90
2022-09-22T00:06:31.330Z,99.90
2022-09-22T00:09:00.820Z,99.90
2022-09-22T00:11:30.730Z,99.90
2022-09-22T00:14:03.787Z,99.90
2022-09-22T00:16:40.270Z,99.90
2022-09-22T00:19:08.739Z,99.90
2022-09-22T00:21:36.358Z,99.90
2022-09-22T00:24:04.921Z,99.90
2022-09-22T00:26:31.926Z,99.90
2022-09-22T00:29:03.656Z,99.90
2022-09-22T00:31:30.739Z,99.90
2022-09-22T00:33:58.275Z,99.90
2022-09-22T00:36:26.987Z,99.90
2022-09-22T00:38:56.503Z,99.90
2022-09-22T00:41:27.874Z,99.90
2022-09-22T00:44:25.515Z,99.90
2022-09-22T00:47:23.251Z,99.90
2022-09-22T00:50:03.704Z,99.90
2022-09-22T00:52:35.569Z,99.90
2022-09-22T00:55:17.709Z,99.90
2022-09-22T00:57:46.867Z,99.90
2022-09-22T01:00:15.016Z,99.90
2022-09-22T01:02:42.359Z,99.90
2022-09-22T01:05:09.825Z,99.90
2022-09-22T01:07:37.920Z,99.90
2022-09-22T01:10:05.111Z,99.90
2022-09-22T01:12:32.579Z,99.90
2022-09-22T01:15:11.360Z,99.90
2022-09-22T01:18:03.964Z,99.90
2022-09-22T01:20:56.038Z,99.90
2022-09-22T01:23:41.178Z,99.90
2022-09-22T01:26:17.152Z,99.90
2022-09-22T01:28:54.138Z,99.90
2022-09-22T01:31:38.906Z,99.90
2022-09-22T01:34:19.697Z,99.90
2022-09-22T01:37:04.604Z,99.90
2022-09-22T01:39:44.842Z,99.90
2022-09-22T01:42:28.190Z,99.90
2022-09-22T01:45:08.652Z,99.90
2022-09-22T01:47:53.488Z,99.90
2022-09-22T01:50:35.957Z,99.90
2022-09-22T01:53:09.560Z,99.90
2022-09-22T01:55:43.124Z,99.90
2022-09-22T01:58:17.720Z,99.90
2022-09-22T02:00:52.074Z,99.90
2022-09-22T02:03:32.187Z,99.90
2022-09-22T02:06:16.435Z,99.90
2022-09-22T02:08:59.372Z,99.90
2022-09-22T02:11:26.712Z,99.90
2022-09-22T02:13:54.018Z,99.90
2022-09-22T02:16:24.017Z,99.90
2022-09-22T02:19:10.437Z,99.90
2022-09-22T02:21:41.946Z,99.90
2022-09-22T02:24:27.141Z,99.90
2022-09-22T02:26:55.371Z,99.90
2022-09-22T02:29:23.051Z,99.90
2022-09-22T02:31:51.846Z,99.90
2022-09-22T02:34:18.902Z,99.90
2022-09-22T02:37:02.302Z,99.90
2022-09-22T02:40:01.676Z,99.90
2022-09-22T02:42:42.492Z,99.90
2022-09-22T02:45:49.469Z,99.90
2022-09-22T02:48:31.036Z,99.90
2022-09-22T02:50:58.311Z,99.90
2022-09-22T02:53:25.319Z,99.90
2022-09-22T02:55:52.627Z,99.90
2022-09-22T02:58:19.574Z,99.90
2022-09-22T03:00:46.535Z,99.90
2022-09-22T03:03:13.539Z,99.90
2022-09-22T03:05:40.527Z,99.90
2022-09-22T03:08:07.712Z,99.90
2022-09-22T03:10:34.708Z,99.90
2022-09-22T03:13:17.747Z,99.90
2022-09-22T03:15:46.155Z,99.90
2022-09-22T03:18:14.011Z,99.90
2022-09-22T03:20:41.064Z,99.90
2022-09-22T03:23:08.334Z,99.90
2022-09-22T03:25:35.346Z,99.90
2022-09-22T03:28:02.650Z,99.90
2022-09-22T03:30:29.732Z,99.90
2022-09-22T03:32:57.231Z,99.90
2022-09-22T03:35:24.191Z,99.90
2022-09-22T03:37:51.184Z,99.90
2022-09-22T03:40:18.315Z,99.90
2022-09-22T03:42:45.320Z,99.90
2022-09-22T03:45:12.864Z,99.90
2022-09-22T03:47:39.918Z,99.90
2022-09-22T03:50:07.564Z,99.90
2022-09-22T03:52:34.843Z,99.90
2022-09-22T03:55:03.171Z,99.90
2022-09-22T03:57:30.363Z,99.90
2022-09-22T03:59:57.373Z,99.90
2022-09-22T04:02:24.520Z,99.90
2022-09-22T04:04:51.659Z,99.90
2022-09-22T04:07:18.735Z,99.90
2022-09-22T04:09:45.663Z,99.90
2022-09-22T04:12:12.646Z,99.90
2022-09-22T04:14:39.595Z,99.90
2022-09-22T04:17:06.620Z,99.90
2022-09-22T04:19:35.791Z,99.90
2022-09-22T04:22:03.619Z,99.90
2022-09-22T04:24:30.780Z,99.90
2022-09-22T04:27:18.617Z,99.90
2022-09-22T04:29:44.715Z,99.90
2022-09-22T04:32:11.672Z,99.90
2022-09-22T04:34:38.719Z,99.90
2022-09-22T04:37:05.908Z,99.90
2022-09-22T04:39:33.381Z,99.90
2022-09-22T04:42:00.385Z,99.90
2022-09-22T04:44:27.412Z,99.90
2022-09-22T04:46:55.973Z,99.90
2022-09-22T04:49:24.362Z,99.90
2022-09-22T04:51:51.347Z,99.90
2022-09-22T04:54:18.293Z,99.90
2022-09-22T04:56:45.383Z,99.90
2022-09-22T04:59:12.519Z,99.90
2022-09-22T05:01:39.609Z,99.90
2022-09-22T05:04:06.641Z,99.90
2022-09-22T05:06:33.628Z,99.90
2022-09-22T05:09:00.660Z,99.90
2022-09-22T05:11:27.806Z,99.90
2022-09-22T05:13:55.651Z,99.90
2022-09-22T05:16:23.460Z,99.90
2022-09-22T05:18:50.598Z,99.90
2022-09-22T05:21:18.951Z,99.90
2022-09-22T05:23:46.515Z,99.90
2022-09-22T05:26:13.524Z,99.90
2022-09-22T05:28:40.982Z,99.90
2022-09-22T05:31:08.484Z,99.90
2022-09-22T05:33:35.532Z,99.90
2022-09-22T05:36:03.175Z,99.90
2022-09-22T05:38:30.147Z,99.90
2022-09-22T05:40:57.177Z,99.90
2022-09-22T05:43:24.210Z,99.90
2022-09-22T05:45:51.296Z,99.90
2022-09-22T05:48:18.408Z,99.90
2022-09-22T05:50:45.581Z,99.90
2022-09-22T05:53:13.544Z,99.90
2022-09-22T05:55:41.331Z,99.90
2022-09-22T05:58:11.848Z,99.90
2022-09-22T06:00:39.885Z,99.90
2022-09-22T06:03:07.320Z,99.90
2022-09-22T06:05:37.811Z,99.90
2022-09-22T06:08:06.659Z,99.90
2022-09-22T06:10:35.508Z,99.90
2022-09-22T06:13:07.910Z,99.90
2022-09-22T06:15:36.296Z,99.90
2022-09-22T06:18:07.125Z,99.90
2022-09-22T06:20:35.280Z,99.90
2022-09-22T06:23:02.672Z,99.90
2022-09-22T06:25:29.959Z,99.90
2022-09-22T06:28:09.719Z,99.90
2022-09-22T06:30:40.192Z,99.90
2022-09-22T06:33:08.134Z,99.90
2022-09-22T06:35:38.194Z,99.90
2022-09-22T06:38:10.099Z,99.90
2022-09-22T06:40:37.088Z,99.90
2022-09-22T06:43:10.677Z,99.90
2022-09-22T06:45:39.309Z,99.90
2022-09-22T06:48:10.138Z,99.90
2022-09-22T06:50:38.901Z,99.90
2022-09-22T06:53:08.319Z,99.90
2022-09-22T06:55:36.087Z,99.90
2022-09-22T06:58:03.283Z,99.90
2022-09-22T07:00:33.183Z,99.90
2022-09-22T07:03:13.671Z,99.90
2022-09-22T07:05:40.616Z,99.90
2022-09-22T07:08:09.050Z,99.90
2022-09-22T07:10:39.062Z,99.90
2022-09-22T07:13:06.585Z,99.90
2022-09-22T07:15:35.671Z,99.90
2022-09-22T07:18:04.428Z,99.90
2022-09-22T07:20:33.734Z,99.90
2022-09-22T07:23:01.059Z,99.90
2022-09-22T07:25:28.959Z,99.90
2022-09-22T07:28:05.117Z,99.90
2022-09-22T07:30:36.359Z,99.90
2022-09-22T07:33:03.682Z,99.90
2022-09-22T07:35:31.783Z,99.90
2022-09-22T07:38:03.415Z,99.90
2022-09-22T07:40:31.150Z,99.90
2022-09-22T07:42:58.273Z,99.90
2022-09-22T07:45:25.319Z,99.90
2022-09-22T07:48:10.736Z,99.90
2022-09-22T07:50:37.676Z,99.90
2022-09-22T07:53:04.728Z,99.90
2022-09-22T07:55:36.740Z,99.90
2022-09-22T07:58:03.843Z,99.90
2022-09-22T08:00:34.644Z,99.90
2022-09-22T08:03:01.840Z,99.90
2022-09-22T08:05:29.631Z,99.90
2022-09-22T08:07:58.357Z,99.90
2022-09-22T08:10:26.429Z,97.70
2022-09-22T08:12:54.905Z,96.50
2022-09-22T08:15:26.912Z,95.00
2022-09-22T08:17:58.262Z,94.10
2022-09-22T08:20:29.102Z,91.20
2022-09-22T08:23:01.416Z,87.60
2022-09-22T08:25:28.880Z,87.70
2022-09-22T08:27:55.855Z,90.20
2022-09-22T08:30:22.814Z,89.60
2022-09-22T08:32:49.845Z,90.80
2022-09-22T08:35:16.799Z,90.50
2022-09-22T08:37:44.505Z,90.90
2022-09-22T08:40:23.807Z,88.70
2022-09-22T08:42:55.708Z,89.40
2022-09-22T08:45:30.904Z,90.80
2022-09-22T08:48:37.640Z,89.10
2022-09-22T08:51:49.086Z,88.40
2022-09-22T08:54:17.132Z,87.70
2022-09-22T08:57:33.719Z,89.20
2022-09-22T09:00:17.848Z,88.60
2022-09-22T09:03:01.959Z,87.00
2022-09-22T09:05:48.446Z,83.70
2022-09-22T09:08:30.439Z,81.00
2022-09-22T09:11:14.628Z,79.90
2022-09-22T09:14:14.051Z,79.50
2022-09-22T09:16:52.698Z,77.70
2022-09-22T09:19:33.856Z,78.30
2022-09-22T09:22:06.442Z,76.90
2022-09-22T09:27:30.332Z,76.40
2022-09-22T09:30:07.010Z,79.30
2022-09-22T09:32:49.227Z,72.60
2022-09-22T09:35:26.715Z,70.00
2022-09-22T09:37:59.659Z,69.60
2022-09-22T09:40:27.728Z,73.20
2022-09-22T09:43:06.935Z,72.00
2022-09-22T09:45:51.894Z,69.00
2022-09-22T09:48:57.381Z,68.10
2022-09-22T09:51:24.667Z,69.30
2022-09-22T09:53:54.600Z,66.90
2022-09-22T09:56:29.575Z,67.80
2022-09-22T09:59:18.984Z,65.70
2022-09-22T10:01:48.875Z,65.50
2022-09-22T10:04:50.189Z,66.60
2022-09-22T10:07:21.500Z,64.30
2022-09-22T10:09:52.287Z,66.30
2022-09-22T10:12:30.948Z,62.70
2022-09-22T10:15:00.527Z,64.60
2022-09-22T10:17:30.550Z,63.10
2022-09-22T10:20:22.866Z,63.50
2022-09-22T10:22:49.984Z,61.60
2022-09-22T10:25:28.410Z,64.10
2022-09-22T10:28:09.441Z,61.60
2022-09-22T10:30:41.177Z,64.90
2022-09-22T10:33:22.039Z,65.70
2022-09-22T10:36:10.968Z,64.60
2022-09-22T10:38:43.634Z,64.10
2022-09-22T10:41:35.381Z,66.10
2022-09-22T10:44:39.429Z,66.80
2022-09-22T10:47:22.501Z,67.00
2022-09-22T10:50:09.571Z,66.50
2022-09-22T10:53:02.477Z,66.30
2022-09-22T10:55:46.160Z,66.80
2022-09-22T10:58:42.843Z,69.30
2022-09-22T11:01:47.318Z,67.70
2022-09-22T11:04:38.890Z,71.30
2022-09-22T11:07:31.327Z,77.90
2022-09-22T11:10:42.260Z,78.90
2022-09-22T11:13:22.502Z,73.20
2022-09-22T11:16:25.158Z,68.10
2022-09-22T11:19:26.604Z,64.00
2022-09-22T11:22:11.675Z,66.90
2022-09-22T11:24:53.326Z,61.70
2022-09-22T11:27:25.832Z,61.10
2022-09-22T11:30:10.730Z,60.60
2022-09-22T11:32:43.998Z,61.70
2022-09-22T11:35:16.908Z,61.70
2022-09-22T11:38:17.934Z,62.60
2022-09-22T11:41:09.047Z,64.10
2022-09-22T11:44:19.511Z,59.10
2022-09-22T11:47:01.117Z,61.20
2022-09-22T11:49:34.161Z,59.80
2022-09-22T11:52:17.594Z,61.10
2022-09-22T11:55:15.841Z,60.90
2022-09-22T11:57:47.355Z,63.80
2022-09-22T12:00:19.708Z,62.80
2022-09-22T12:02:49.953Z,63.20
2022-09-22T12:05:30.973Z,62.30
2022-09-22T12:08:27.532Z,63.70
2022-09-22T12:10:55.878Z,62.90
2022-09-22T12:13:25.562Z,62.40
2022-09-22T12:15:55.736Z,61.70
2022-09-22T12:18:39.904Z,63.30
2022-09-22T12:21:15.765Z,64.40
2022-09-22T12:23:47.695Z,62.50
2022-09-22T12:26:31.311Z,62.70
2022-09-22T12:29:00.954Z,61.00
2022-09-22T12:31:42.273Z,59.50
2022-09-22T12:34:39.337Z,61.90
2022-09-22T12:37:22.792Z,59.50
2022-09-22T12:39:49.999Z,60.10
2022-09-22T12:42:22.728Z,60.50
2022-09-22T12:44:58.081Z,63.00
2022-09-22T12:47:34.628Z,60.20
2022-09-22T12:50:23.174Z,61.50
2022-09-22T12:52:53.885Z,60.50
2022-09-22T12:55:29.960Z,57.90
2022-09-22T12:57:58.655Z,60.50
2022-09-22T13:00:35.906Z,57.10
2022-09-22T13:03:24.492Z,58.00
2022-09-22T13:05:58.383Z,59.00
2022-09-22T13:08:45.528Z,61.50
2022-09-22T13:11:12.555Z,67.00
2022-09-22T13:13:50.694Z,69.80
2022-09-22T13:16:18.029Z,73.80
2022-09-22T13:18:46.004Z,74.80
2022-09-22T13:21:13.009Z,72.60
2022-09-22T13:23:58.954Z,74.20
2022-09-22T13:26:34.535Z,76.80
2022-09-22T13:29:17.753Z,78.10
2022-09-22T13:31:51.108Z,79.70
2022-09-22T13:34:24.746Z,79.40
2022-09-22T13:37:00.524Z,78.80
2022-09-22T13:39:43.456Z,77.70
2022-09-22T13:42:19.329Z,76.20
2022-09-22T13:44:56.736Z,74.40
2022-09-22T13:47:25.248Z,72.10
2022-09-22T13:50:01.450Z,70.80
2022-09-22T13:52:31.356Z,72.20
2022-09-22T13:55:09.788Z,74.40
2022-09-22T13:57:38.545Z,78.50
2022-09-22T14:00:10.404Z,81.50
2022-09-22T14:02:45.311Z,84.30
2022-09-22T14:05:21.827Z,83.20
2022-09-22T14:08:10.658Z,80.70
2022-09-22T14:10:38.150Z,78.60
2022-09-22T14:13:05.148Z,76.90
2022-09-22T14:15:37.867Z,76.40
2022-09-22T14:18:16.945Z,77.10
2022-09-22T14:20:45.362Z,77.20
2022-09-22T14:23:30.916Z,76.40
2022-09-22T14:26:15.736Z,77.20
2022-09-22T14:28:42.784Z,77.30
2022-09-22T14:31:20.397Z,78.60
2022-09-22T14:33:47.701Z,78.10
2022-09-22T14:36:21.158Z,78.30
2022-09-22T14:39:04.382Z,77.80
2022-09-22T14:41:38.298Z,77.10
2022-09-22T14:44:35.198Z,78.00
2022-09-22T14:47:26.156Z,76.90
2022-09-22T14:50:18.797Z,78.30
2022-09-22T14:53:06.785Z,80.70
2022-09-22T14:55:41.325Z,82.70
2022-09-22T14:58:20.648Z,81.90
2022-09-22T15:01:18.156Z,80.90
2022-09-22T15:04:02.842Z,81.90
2022-09-22T15:06:37.697Z,82.90
2022-09-22T15:09:05.303Z,83.80
2022-09-22T15:12:00.264Z,85.20
2022-09-22T15:14:36.766Z,86.50
2022-09-22T15:17:56.004Z,88.80
2022-09-22T15:20:32.092Z,89.50
2022-09-22T15:22:59.130Z,86.70
2022-09-22T15:25:26.160Z,86.00
2022-09-22T15:27:53.528Z,84.10
2022-09-22T15:30:22.124Z,83.00
2022-09-22T15:32:49.576Z,82.60
2022-09-22T15:35:20.969Z,84.60
2022-09-22T15:37:50.143Z,85.90
2022-09-22T15:40:21.728Z,85.40
2022-09-22T15:43:11.328Z,84.10
2022-09-22T15:45:37.899Z,84.60
2022-09-22T15:48:04.986Z,84.90
2022-09-22T15:50:32.481Z,83.50
2022-09-22T15:52:59.427Z,85.20
2022-09-22T15:55:26.398Z,85.60
2022-09-22T15:57:57.007Z,87.50
2022-09-22T16:00:27.665Z,88.60
2022-09-22T16:02:54.795Z,90.20
2022-09-22T16:05:22.718Z,91.00
2022-09-22T16:07:52.181Z,91.90
2022-09-22T16:10:23.551Z,91.90
2022-09-22T16:12:50.702Z,92.90
2022-09-22T16:15:18.115Z,93.40
2022-09-22T16:17:46.123Z,94.50
2022-09-22T16:20:16.933Z,95.10
2022-09-22T16:22:45.479Z,95.50
2022-09-22T16:25:15.381Z,96.10
2022-09-22T16:27:43.113Z,96.70
2022-09-22T16:30:10.648Z,97.00
2022-09-22T16:32:37.613Z,97.50
2022-09-22T16:35:04.892Z,98.00
2022-09-22T16:37:32.040Z,98.30
2022-09-22T16:39:59.028Z,98.90
2022-09-22T16:42:26.072Z,99.40
2022-09-22T16:44:53.032Z,99.90
2022-09-22T16:47:22.989Z,99.90
2022-09-22T16:49:51.442Z,99.90
2022-09-22T16:52:20.075Z,99.90
2022-09-22T16:54:47.136Z,99.90
2022-09-22T16:57:14.139Z,99.90
2022-09-22T16:59:41.184Z,99.90
2022-09-22T17:02:10.449Z,99.90
2022-09-22T17:04:37.471Z,99.90
2022-09-22T17:07:05.681Z,99.90
2022-09-22T17:09:32.785Z,99.90
2022-09-22T17:12:00.949Z,99.90
2022-09-22T17:14:29.067Z,99.90
2022-09-22T17:16:57.756Z,99.90
2022-09-22T17:19:26.737Z,99.90
2022-09-22T17:21:55.768Z,99.90
2022-09-22T17:24:24.233Z,99.90
2022-09-22T17:26:56.820Z,99.90
2022-09-22T17:29:26.487Z,99.90
2022-09-22T17:31:59.456Z,99.90
2022-09-22T17:34:28.605Z,99.90
2022-09-22T17:36:57.111Z,99.90
2022-09-22T17:39:25.307Z,99.90
2022-09-22T17:41:52.719Z,99.90
2022-09-22T17:44:22.960Z,99.90
2022-09-22T17:47:10.366Z,99.90
2022-09-22T17:49:56.438Z,99.90
2022-09-22T17:52:32.078Z,99.90
2022-09-22T17:55:07.494Z,99.90
2022-09-22T17:57:39.918Z,99.90
2022-09-22T18:00:12.571Z,99.90
2022-09-22T18:02:39.699Z,99.90
2022-09-22T18:05:09.000Z,99.90
2022-09-22T18:07:38.243Z,99.90
2022-09-22T18:10:06.897Z,99.90
2022-09-22T18:12:34.359Z,99.90
2022-09-22T18:15:03.538Z,99.90
2022-09-22T18:17:33.464Z,99.90
2022-09-22T18:20:00.702Z,99.90
2022-09-22T18:22:28.618Z,99.90
2022-09-22T18:24:56.263Z,99.90
2022-09-22T18:27:27.139Z,99.90
2022-09-22T18:29:58.628Z,99.90
2022-09-22T18:32:27.309Z,99.90
2022-09-22T18:34:55.367Z,99.90
2022-09-22T18:37:23.609Z,99.90
2022-09-22T18:39:50.717Z,99.90
2022-09-22T18:42:24.422Z,99.90
2022-09-22T18:44:52.529Z,99.90
2022-09-22T18:47:21.132Z,99.90
2022-09-22T18:49:50.171Z,99.90
2022-09-22T18:52:21.759Z,99.90
2022-09-22T18:54:49.111Z,99.90
2022-09-22T18:57:16.075Z,99.90
2022-09-22T18:59:43.154Z,99.90
2022-09-22T19:02:11.952Z,99.90
2022-09-22T19:04:39.637Z,99.90
2022-09-22T19:07:25.115Z,99.90
2022-09-22T19:09:52.949Z,99.90
2022-09-22T19:12:21.869Z,99.90
2022-09-22T19:14:50.154Z,99.90
2022-09-22T19:17:18.019Z,99.90
2022-09-22T19:19:46.735Z,99.90
2022-09-22T19:22:13.720Z,99.90
2022-09-22T19:24:46.056Z,99.90
2022-09-22T19:27:15.717Z,99.90
2022-09-22T19:29:42.717Z,99.90
2022-09-22T19:32:10.221Z,99.90
2022-09-22T19:34:37.272Z,99.90
2022-09-22T19:37:04.340Z,99.90
2022-09-22T19:39:32.295Z,99.90
2022-09-22T19:42:00.098Z,99.90
2022-09-22T19:44:29.650Z,99.90
2022-09-22T19:46:57.153Z,99.90
2022-09-22T19:49:25.521Z,99.90
2022-09-22T19:51:53.523Z,99.90
2022-09-22T19:54:20.964Z,99.90
2022-09-22T19:56:48.635Z,99.90
2022-09-22T19:59:19.705Z,99.90
2022-09-22T20:01:48.140Z,99.90
2022-09-22T20:04:18.073Z,99.90
2022-09-22T20:06:46.096Z,99.90
2022-09-22T20:09:13.465Z,99.90
2022-09-22T20:11:43.127Z,99.90
2022-09-22T20:14:22.220Z,99.90
2022-09-22T20:17:04.963Z,99.90
2022-09-22T20:19:34.967Z,99.90
2022-09-22T20:22:18.098Z,99.90
2022-09-22T20:24:54.801Z,99.90
2022-09-22T20:27:42.041Z,99.90
2022-09-22T20:30:10.253Z,99.90
2022-09-22T20:32:37.815Z,99.90
2022-09-22T20:35:05.267Z,99.90
2022-09-22T20:37:32.414Z,99.90
2022-09-22T20:39:59.436Z,99.90
2022-09-22T20:42:26.478Z,99.90
2022-09-22T20:44:53.424Z,99.90
2022-09-22T20:47:25.483Z,99.90
2022-09-22T20:49:52.515Z,99.90
2022-09-22T20:52:20.996Z,99.90
2022-09-22T20:54:49.039Z,99.90
2022-09-22T20:57:16.210Z,99.90
2022-09-22T20:59:45.771Z,99.90
2022-09-22T21:02:14.269Z,99.90
2022-09-22T21:04:41.587Z,99.90
2022-09-22T21:07:09.048Z,99.90
2022-09-22T21:09:54.624Z,99.90
2022-09-22T21:12:21.593Z,99.90
2022-09-22T21:14:48.809Z,99.90
2022-09-22T21:17:15.795Z,99.90
2022-09-22T21:19:43.407Z,99.90
2022-09-22T21:22:10.658Z,99.90
2022-09-22T21:24:37.662Z,99.90
2022-09-22T21:27:05.230Z,99.90
2022-09-22T21:29:32.447Z,99.90
2022-09-22T21:32:00.636Z,99.90
2022-09-22T21:34:27.794Z,99.90
2022-09-22T21:36:54.758Z,99.90
2022-09-22T21:39:21.741Z,99.90
2022-09-22T21:41:49.199Z,99.90
2022-09-22T21:44:16.242Z,99.90
2022-09-22T21:46:44.296Z,99.90
2022-09-22T21:49:11.739Z,99.90
2022-09-22T21:51:42.372Z,99.90
2022-09-22T21:54:15.063Z,99.90
2022-09-22T21:56:42.591Z,99.90
2022-09-22T21:59:11.879Z,99.90
2022-09-22T22:01:40.686Z,99.90
2022-09-22T22:04:08.839Z,99.90
2022-09-22T22:06:43.578Z,99.90
2022-09-22T22:09:15.284Z,99.90
2022-09-22T22:11:56.496Z,99.90
2022-09-22T22:14:25.956Z,99.90
2022-09-22T22:16:54.903Z,99.90
2022-09-22T22:19:24.855Z,99.90
2022-09-22T22:21:52.445Z,99.90
2022-09-22T22:24:28.791Z,99.90
2022-09-22T22:26:58.062Z,99.90
2022-09-22T22:29:26.701Z,99.90
2022-09-22T22:31:53.928Z,99.90
2022-09-22T22:34:22.915Z,99.90
2022-09-22T22:36:50.306Z,99.90
2022-09-22T22:39:17.436Z,99.90
2022-09-22T22:41:45.713Z,99.90
2022-09-22T22:44:12.768Z,99.90
2022-09-22T22:46:39.926Z,99.90
2022-09-22T22:49:11.600Z,99.90
2022-09-22T22:51:40.323Z,99.90
2022-09-22T22:54:07.387Z,99.90
2022-09-22T22:56:34.358Z,99.90
2022-09-22T22:59:01.429Z,99.90
2022-09-22T23:01:31.942Z,99.90
2022-09-22T23:04:05.134Z,99.90
2022-09-22T23:06:39.564Z,99.90
2022-09-22T23:09:11.096Z,99.90
2022-09-22T23:11:40.102Z,99.90
2022-09-22T23:14:09.429Z,99.90
2022-09-22T23:16:41.643Z,99.90
2022-09-22T23:19:14.297Z,99.90
2022-09-22T23:21:41.308Z,99.90
2022-09-22T23:24:08.496Z,99.90
2022-09-22T23:26:37.727Z,99.90
2022-09-22T23:29:05.368Z,99.90
2022-09-22T23:31:32.725Z,99.90
2022-09-22T23:33:59.743Z,99.90
2022-09-22T23:36:28.738Z,99.90
2022-09-22T23:39:03.938Z,99.90
2022-09-22T23:41:33.194Z,99.90
2022-09-22T23:44:00.608Z,99.90
2022-09-22T23:46:28.033Z,99.90
2022-09-22T23:48:55.728Z,99.90
2022-09-22T23:51:23.224Z,99.90
2022-09-22T23:53:50.181Z,99.90
2022-09-22T23:56:17.496Z,99.90
2022-09-22T23:58:45.484Z,99.90
